Station: Nambour  

  Atmospheric Gas Attenuation - ITU Rec 676-11   ----------------- dB/100km -----------------
Date Time Temp RH % AH g/m3 Dew Point Wind Direction Speed kph Gust kph Barometer mB Rainfall Since 9am 24GHz 47GHz 76GHz 122GHz 134GHz 241GHz
08/05 12:30 21 31 5.68 3.2 4 7 1018.8 0 13.1 20.0 26.5 69.0 56.9 193.8
08/05 12:20 20.8 28 5.07 1.6 4 7 1019 0 11.9 19.3 24.6 63.9 50.5 171.3
08/05 12:10 20.3 29 5.1 1.7 6 9 1019.2 0 11.9 19.4 24.9 64.6 51.2 173.5
08/05 12:00 21 32 5.86 3.7 4 6 1019.3 0 13.5 20.3 27.1 70.6 58.9 200.7
08/05 11:50 20.7 29 5.22 2 6 6 1019.5 0 12.2 19.5 25.2 65.3 52.2 177.2
08/05 11:40 20.7 31 5.58 2.9 2 2 1019.6 0 12.9 20.0 26.3 68.4 56.1 190.8
08/05 11:30 19.9 29 4.98 1.4 4 11 1019.8 0 11.7 19.3 24.6 63.9 50.2 169.9
08/05 11:20 20.4 34 6.01 4 4 4 1020 0 13.8 20.6 27.8 72.5 61.0 208.1
08/05 11:10 20.4 30 5.31 2.2 6 7 1020.1 0 12.4 19.7 25.6 66.4 53.4 181.3
08/05 11:00 20.2 30 5.25 2.1 6 11 1020.3 0 12.3 19.7 25.4 66.0 52.9 179.5
08/05 10:50 19.8 31 5.29 2.2 4 6 1020.5 0 12.4 19.8 25.7 66.7 53.6 182.0
08/05 10:40 19.6 32 5.4 2.4 7 9 1020.6 0 12.6 20.0 26.1 67.8 54.9 186.6
08/05 10:30 20 32 5.53 2.8 4 7 1020.8 0 12.9 20.1 26.4 68.7 56.1 190.7
08/05 10:20 19.6 29 4.9 1.1 4 6 1020.9 0 11.6 19.3 24.5 63.5 49.6 167.7
08/05 10:10 7 9 1020.9 0
08/05 10:00 19.9 34 5.84 3.6 4 9 1020.9 0 13.5 20.5 27.5 71.5 59.6 202.9
08/05 09:50 19.2 31 5.11 1.6 7 11 1020.9 0 12.0 19.7 25.3 65.6 52.1 176.5
08/05 09:40 4 6 1021 0
08/05 09:30 18.8 33 5.31 2.2 6 13 1020.9 0 12.4 20.0 26.1 67.7 54.5 185.0
08/05 09:20 19.4 36 6.01 3.9 6 7 1020.9 0 13.9 20.9 28.2 73.5 61.8 210.8
08/05 09:10 18.8 36 5.8 3.4 4 4 1020.9 0 13.5 20.7 27.7 72.1 59.9 204.0
08/05 09:00 19 36 5.87 3.6 4 7 1020.8 0 13.6 20.8 27.9 72.6 60.5 206.3
08/05 08:50 18.8 40 6.44 4.9 2 2 1020.8 0 14.8 21.6 29.9 78.0 67.1 229.4
08/05 08:40 17.9 37 5.65 3 4 6 1020.7 0 13.2 20.7 27.5 71.5 58.9 200.3
08/05 08:30 17.5 35 5.22 1.9 4 9 1020.7 0 12.3 20.2 26.2 68.0 54.4 184.4
08/05 08:20 17.3 36 5.3 2.1 2 4 1020.7 0 12.5 20.4 26.5 68.9 55.4 188.0
08/05 08:10 16.7 37 5.26 1.9 4 7 1020.7 0 12.4 20.4 26.6 69.0 55.4 187.8
08/05 08:00 16.3 40 5.55 2.7 4 7 1020.6 0 13.0 20.9 27.7 72.0 58.9 200.2
08/05 07:50 15.9 40 5.42 2.3 4 4 1020.5 0 12.8 20.8 27.4 71.1 57.7 196.0
08/05 07:40 15.4 42 5.52 2.5 4 6 1020.4 0 13.0 21.1 27.9 72.5 59.2 201.2
08/05 07:30 15.1 42 5.42 2.3 4 9 1020.4 0 12.8 21.0 27.6 71.8 58.3 197.9
08/05 07:20 15.1 53 6.84 5.8 2 4 1020.3 0 15.8 23.1 32.7 85.5 75.1 257.0
08/05 07:10 14.1 47 5.7 2.9 6 6 1020.1 0 13.4 21.6 28.9 75.4 62.3 211.8
08/05 07:00 13.7 61 7.22 6.3 2 7 1020 0 16.6 24.0 34.7 90.8 81.2 278.2
08/05 06:50 13.2 54 6.2 4.1 0 0 1019.7 0 14.5 22.6 31.1 81.1 69.0 235.3
08/05 06:40 12.5 50 5.5 2.3 4 4 1019.6 0 13.0 21.7 28.8 74.9 61.1 207.5
08/05 06:30 12.6 51 5.64 2.7 4 9 1019.4 0 13.3 21.9 29.2 76.1 62.7 213.1
08/05 06:20 12.1 50 5.36 2 4 6 1019.3 0 12.8 21.6 28.4 73.9 59.7 202.6
08/05 06:10 12.4 49 5.35 2 4 4 1019.4 0 12.7 21.5 28.3 73.5 59.4 201.4
08/05 06:00 12.6 46 5.09 1.3 4 9 1019.1 0 12.2 21.0 27.2 70.8 56.2 190.1
08/05 05:50 12.7 46 5.12 1.4 4 6 1019.1 0 12.2 21.1 27.3 71.0 56.4 191.1
08/05 05:40 12.8 46 5.15 1.4 4 4 1018.9 0 12.3 21.1 27.4 71.2 56.7 192.1
08/05 05:30 13.1 44 5.02 1.1 7 17 1018.9 0 12.0 20.8 26.8 69.7 55.0 186.0
08/05 05:20 13.4 44 5.12 1.4 13 17 1018.7 0 12.2 20.9 27.1 70.4 55.9 189.4
08/05 05:10 13.2 46 5.28 1.8 6 7 1018.5 0 12.6 21.2 27.7 72.0 57.9 196.4
08/05 05:00 12.5 49 5.39 2.1 6 11 1018.4 0 12.8 21.5 28.3 73.7 59.7 202.7
08/05 04:50 12.7 52 5.79 3.1 6 6 1018.4 0 13.7 22.0 29.7 77.4 64.4 219.0
08/05 04:40 13.1 48 5.48 2.3 7 11 1018.2 0 13.0 21.5 28.4 74.0 60.3 204.9
08/05 04:30 13.3 48 5.55 2.5 6 11 1018.1 0 13.1 21.5 28.6 74.5 61.0 207.3
08/05 04:20 13.2 48 5.51 2.4 4 4 1017.9 0 13.0 21.5 28.5 74.2 60.6 205.8
08/05 04:10 13.3 48 5.55 2.5 4 4 1017.8 0 13.1 21.5 28.6 74.5 61.0 207.2
08/05 04:00 13.6 47 5.53 2.5 6 15 1017.6 0 13.1 21.4 28.4 74.0 60.5 205.6
08/05 03:50 13.5 48 5.61 2.7 4 7 1017.7 0 13.2 21.5 28.7 74.8 61.6 209.2
08/05 03:40 13.6 48 5.65 2.8 9 13 1017.6 0 13.3 21.6 28.9 75.1 61.9 210.6
08/05 03:30 13.9 46 5.51 2.5 4 11 1017.6 0 13.0 21.3 28.2 73.5 60.1 204.0
08/05 03:20 13.7 47 5.57 2.6 0 2 1017.5 0 13.2 21.4 28.5 74.3 60.9 207.0
08/05 03:10 14.4 45 5.56 2.6 6 7 1017.5 0 13.1 21.3 28.2 73.5 60.3 204.8
08/05 03:00 14.5 45 5.6 2.7 11 30 1017.3 0 13.2 21.3 28.3 73.8 60.6 206.1
08/05 02:50 14.3 48 5.9 3.4 6 7 1017.4 0 13.8 21.8 29.5 76.9 64.3 219.1
08/05 02:40 14.7 46 5.79 3.2 7 11 1017.5 0 13.6 21.5 29.0 75.4 62.7 213.5
08/05 02:30 14.9 46 5.86 3.4 6 15 1017.8 0 13.7 21.6 29.1 75.9 63.4 215.9
08/05 02:20 14.8 47 5.95 3.6 4 6 1017.8 0 13.9 21.7 29.5 76.9 64.6 219.9
08/05 02:10 15.1 45 5.81 3.5 4 6 1017.6 0 13.6 21.5 28.9 75.3 62.7 213.3
08/05 02:00 15.1 48 6.19 4.2 2 6 1017.8 0 14.4 22.0 30.3 78.9 67.1 229.0
08/05 01:50 15.4 47 6.17 4.1 2 4 1017.8 0 14.4 21.9 30.1 78.4 66.7 227.4
08/05 01:40 15.6 48 6.38 4.6 7 9 1017.8 0 14.8 22.2 30.8 80.2 69.0 235.5
08/05 01:30 16 47 6.4 4.7 7 24 1017.8 0 14.8 22.1 30.7 80.0 68.9 235.2
08/05 01:20 15.9 48 6.5 4.9 2 4 1017.9 0 15.0 22.3 31.1 81.1 70.1 239.7
08/05 01:10 16.2 48 6.62 5.2 4 7 1017.8 0 15.3 22.4 31.4 82.0 71.3 243.8
08/05 01:00 16.2 49 6.76 5.5 4 9 1017.9 0 15.6 22.6 31.9 83.3 73.0 249.7
08/05 00:50 16.6 47 6.64 5.2 6 9 1017.9 0 15.3 22.3 31.3 81.7 71.2 243.4
08/05 00:40 17 46 6.66 5.3 2 4 1018.1 0 15.3 22.2 31.2 81.6 71.1 243.1
08/05 00:30 16.8 47 6.72 5.4 6 15 1018.1 0 15.5 22.4 31.5 82.3 72.0 246.2
08/05 00:20 16.1 52 7.13 6.2 2 4 1017.9 0 16.4 23.2 33.3 87.0 77.5 265.6
08/05 00:10 16.9 50 7.19 6.4 6 6 1017.8 0 16.5 23.0 33.2 86.8 77.5 265.5
08/05 00:00 17.3 47 6.92 5.9 4 9 1017.8 0 15.9 22.5 32.0 83.7 73.9 252.9
07/05 23:50 17.3 47 6.92 5.9 4 4 1017.7 0 15.9 22.5 32.0 83.7 73.9 252.9
07/05 23:40 17.7 45 6.79 5.6 4 6 1017.7 0 15.6 22.3 31.4 82.1 72.0 246.3
07/05 23:30 17.9 45 6.87 5.8 7 20 1017.9 0 15.7 22.3 31.6 82.6 72.7 249.0
07/05 23:20 18.2 43 6.68 5.4 11 17 1017.8 0 15.3 22.0 30.8 80.5 70.2 240.3
07/05 23:10 18 43 6.6 5.2 6 7 1017.7 0 15.2 21.9 30.6 80.0 69.5 237.6
07/05 23:00 17.7 45 6.79 5.6 4 9 1017.7 0 15.6 22.3 31.4 82.1 72.0 246.3
07/05 22:50 18.3 41 6.41 5.1 7 9 1017.7 0 14.8 21.6 29.9 77.9 67.0 229.0
07/05 22:40 18.5 41 6.49 5 6 7 1017.7 0 14.9 21.6 30.1 78.4 67.8 231.7
07/05 22:30 17.7 47 7.09 6.3 2 6 1017.6 0 16.2 22.7 32.5 84.9 75.5 258.7
07/05 22:20 18.1 44 6.8 5.6 4 4 1017.6 0 15.6 22.2 31.3 81.7 71.7 245.5
07/05 22:10 18.5 42 6.64 5.3 2 2 1017.6 0 15.2 21.8 30.6 79.8 69.5 237.7
07/05 22:00 19.1 40 6.56 5.2 7 15 1017.6 0 15.0 21.6 30.1 78.5 68.1 232.8
07/05 21:50 19 42 6.84 5.8 6 7 1017.6 0 15.6 22.0 31.1 81.2 71.4 244.4
07/05 21:40 18.9 43 6.97 6 4 4 1017.5 0 15.9 22.2 31.6 82.5 73.0 250.0
07/05 21:30 19.1 43 7.05 6.2 6 9 1017.5 0 16.1 22.3 31.8 83.1 73.7 252.6
07/05 21:20 19.3 41 6.8 6 6 7 1017.3 0 15.5 21.9 30.8 80.5 70.6 241.8
07/05 21:10 18.6 46 7.32 7 6 7 1017.3 0 16.7 22.8 32.9 86.1 77.3 265.3
07/05 21:00 18.7 48 7.68 7.5 6 9 1017.4 0 17.4 23.3 34.2 89.5 81.5 280.0
07/05 20:50 18.7 47 7.52 7.4 7 7 1017.2 0 17.1 23.0 33.6 88.0 79.6 273.3
07/05 20:40 17.8 56 8.5 8.9 4 6 1017.2 0 19.2 24.8 37.6 98.7 92.5 318.5
07/05 20:30 19.1 48 7.87 7.8 2 6 1017.1 0 17.8 23.5 34.7 90.9 83.4 286.5
07/05 20:20 19 50 8.15 8.3 4 6 1017.1 0 18.4 23.9 35.8 93.7 86.9 298.7
07/05 20:10 19.1 49 8.03 8.1 4 6 1016.9 0 18.1 23.7 35.3 92.4 85.3 293.2
07/05 20:00 20 45 7.78 7.7 4 13 1016.9 0 17.6 23.1 34.0 89.0 81.4 279.6

Last Refresh: 08-May-2026 12:07:59

Bureau of Meteorology